Time;durP1;ratioP1;P1;durP2;ratioP2;P2;SDS_P1;SDS_P2;PMS_P1;PMS_P2;Temp;Humidity;BMP_temperature;BMP_pressure;BME280_temperature;BME280_humidity;BME280_pressure;Samples;Min_cycle;Max_cycle;Signal;HPM_P1;HPM_P2
2021/03/03 00:00:01;;;;;;;;;;;;;;;-2.46;100.00;102438.91;5092151;28;20401;-73
2021/03/03 00:02:27;;;;;;;;;;;;;;;-2.45;100.00;102440.66;5092076;28;20049;-73
2021/03/03 00:04:53;;;;;;;;;;;;;;;-2.46;100.00;102441.56;5092214;28;20353;-73
2021/03/03 00:07:19;;;;;;;;;;;;;;;-2.53;100.00;102435.34;5091833;28;19932;-73
2021/03/03 00:09:45;;;;;;;;;;;;;;;-2.58;100.00;102439.78;5091863;28;19924;-73
2021/03/03 00:12:11;;;;;;;;;;;;;;;-2.60;100.00;102441.53;5092058;28;20627;-73
2021/03/03 00:14:37;;;;;;;;;;;;;;;-2.63;100.00;102433.56;5091969;28;19931;-73
2021/03/03 00:17:03;;;;;;;;;;;;;;;-2.61;100.00;102430.91;5091932;28;19924;-73
2021/03/03 00:19:29;;;;;;;;;;;;;;;-2.60;100.00;102435.34;5090589;28;19924;-73
2021/03/03 00:21:55;;;;;;;;;;;;;;;-2.62;100.00;102431.78;5092080;28;19935;-73
2021/03/03 00:24:21;;;;;;;;;;;;;;;-2.65;100.00;102432.66;5091903;28;20023;-73
2021/03/03 00:26:46;;;;;;;;;;;;;;;-2.64;100.00;102434.44;5091247;28;20408;-73
2021/03/03 00:29:12;;;;;;;;;;;;;;;-2.63;100.00;102433.56;5091899;28;19924;-72
2021/03/03 00:31:38;;;;;;;;;;;;;;;-2.70;100.00;102431.78;5091815;28;19924;-72
2021/03/03 00:34:04;;;;;;;;;;;;;;;-2.74;100.00;102428.25;5091723;28;20314;-73
2021/03/03 00:36:30;;;;;;;;;;;;;;;-2.75;100.00;102436.22;5091153;28;19928;-73
2021/03/03 00:38:56;;;;;;;;;;;;;;;-2.76;100.00;102431.78;5101274;28;20014;-73
2021/03/03 00:41:22;;;;;;;;;;;;;;;-2.81;100.00;102433.53;5091665;28;20595;-72
2021/03/03 00:43:48;;;;;;;;;;;;;;;-2.83;100.00;102427.31;5091632;28;19931;-72
2021/03/03 00:46:15;;;;;;;;;;;;;;;-2.86;100.00;102422.88;5090519;28;22398;-73
2021/03/03 00:48:41;;;;;;;;;;;;;;;-2.87;100.00;102422.00;5090485;28;19924;-73
2021/03/03 00:51:06;;;;;;;;;;;;;;;-2.88;100.00;102424.69;5091711;28;19981;-73
2021/03/03 00:53:34;;;;;;;;;;;;;;;-2.89;100.00;102415.78;5097307;28;19924;-72
2021/03/03 00:56:01;;;;;;;;;;;;;;;-2.90;100.00;102408.72;5110297;28;19982;-72
2021/03/03 00:58:31;;;;;;;;;;;;;;;-2.90;100.00;102421.13;5112108;28;19945;-73
2021/03/03 01:01:00;;;;;;;;;;;;;;;-2.90;100.00;102414.03;5110529;28;20022;-72
2021/03/03 01:03:29;;;;;;;;;;;;;;;-2.91;100.00;102414.91;5110411;28;19935;-73
2021/03/03 01:06:04;;;;;;;;;;;;;;;-2.92;100.00;102412.28;5110228;28;19923;-72
2021/03/03 01:08:31;;;;;;;;;;;;;;;-2.94;100.00;102412.28;5110542;28;19935;-73
2021/03/03 01:10:58;;;;;;;;;;;;;;;-2.94;100.00;102404.28;5109571;28;19930;-72
2021/03/03 01:13:28;;;;;;;;;;;;;;;-2.91;100.00;102406.06;5110404;28;19924;-72
2021/03/03 01:15:56;;;;;;;;;;;;;;;-2.94;100.00;102400.72;5110152;28;20369;-74
2021/03/03 01:18:26;;;;;;;;;;;;;;;-2.97;100.00;102398.06;5110579;28;20494;-73
2021/03/03 01:20:52;;;;;;;;;;;;;;;-3.00;100.00;102398.97;5111517;28;19928;-72
2021/03/03 01:23:17;;;;;;;;;;;;;;;-2.95;100.00;102397.19;5111411;28;19957;-73
2021/03/03 01:25:43;;;;;;;;;;;;;;;-2.95;100.00;102398.94;5111537;28;19923;-72
2021/03/03 01:28:10;;;;;;;;;;;;;;;-2.96;100.00;102400.72;5111452;28;20346;-72
2021/03/03 01:30:36;;;;;;;;;;;;;;;-2.96;100.00;102398.06;5110025;28;20289;-72
2021/03/03 01:33:02;;;;;;;;;;;;;;;-2.95;100.00;102399.84;5110858;28;19924;-73
2021/03/03 01:35:27;;;;;;;;;;;;;;;-3.01;100.00;102389.19;5111308;28;19935;-72
2021/03/03 01:37:53;;;;;;;;;;;;;;;-3.00;100.00;102387.44;5114500;28;19923;-72
2021/03/03 01:40:19;;;;;;;;;;;;;;;-3.06;100.00;102380.34;5114544;28;19924;-72
2021/03/03 01:42:45;;;;;;;;;;;;;;;-3.11;100.00;102382.13;5115226;28;20055;-72
2021/03/03 01:45:12;;;;;;;;;;;;;;;-3.14;100.00;102375.03;5115133;28;20294;-72
2021/03/03 01:47:38;;;;;;;;;;;;;;;-3.13;100.00;102374.13;5115067;28;19978;-72
2021/03/03 01:50:05;;;;;;;;;;;;;;;-3.16;100.00;102373.25;5115091;28;20377;-72
2021/03/03 01:52:32;;;;;;;;;;;;;;;-3.21;100.00;102368.81;5115123;28;19931;-72
2021/03/03 01:54:57;;;;;;;;;;;;;;;-3.20;100.00;102362.59;5115101;28;19990;-72
2021/03/03 01:57:23;;;;;;;;;;;;;;;-3.13;100.00;102360.84;5114990;28;20320;-72
2021/03/03 01:59:49;;;;;;;;;;;;;;;-3.13;100.00;102360.84;5115162;28;19931;-72
2021/03/03 02:02:16;;;;;;;;;;;;;;;-3.14;100.00;102356.44;5113773;28;19955;-72
2021/03/03 02:04:42;;;;;;;;;;;;;;;-3.17;100.00;102353.75;5115022;28;20016;-72
2021/03/03 02:07:11;;;;;;;;;;;;;;;-3.18;100.00;102348.44;5114644;28;19924;-72
2021/03/03 02:09:40;;;;;;;;;;;;;;;-3.17;100.00;102347.56;5102265;28;19928;-72
2021/03/03 02:12:09;;;;;;;;;;;;;;;-3.14;100.00;102344.91;5094428;28;19970;-72
2021/03/03 02:14:36;;;;;;;;;;;;;;;-3.14;100.00;102347.56;5094282;28;20022;-72
2021/03/03 02:17:03;;;;;;;;;;;;;;;-3.12;100.00;102346.69;5094399;28;20385;-72
2021/03/03 02:19:32;;;;;;;;;;;;;;;-3.10;100.00;102346.66;5094288;28;20010;-73
2021/03/03 02:22:02;;;;;;;;;;;;;;;-3.11;100.00;102335.16;5094265;28;20014;-72
2021/03/03 02:24:30;;;;;;;;;;;;;;;-3.13;100.00;102334.25;5106191;28;19928;-73
2021/03/03 02:26:57;;;;;;;;;;;;;;;-3.13;100.00;102336.06;5114217;28;20026;-72
2021/03/03 02:29:24;;;;;;;;;;;;;;;-3.17;100.00;102331.63;5114384;28;20026;-72
2021/03/03 02:31:51;;;;;;;;;;;;;;;-3.18;100.00;102328.06;5114495;28;20432;-73
2021/03/03 02:34:18;;;;;;;;;;;;;;;-3.18;100.00;102325.41;5113143;28;19931;-72
2021/03/03 02:36:46;;;;;;;;;;;;;;;-3.20;100.00;102312.13;5113814;28;20407;-72
2021/03/03 02:39:12;;;;;;;;;;;;;;;-3.23;100.00;102301.50;5114280;28;19955;-72
2021/03/03 02:41:40;;;;;;;;;;;;;;;-3.24;100.00;102302.38;5112975;28;19954;-72
2021/03/03 02:44:07;;;;;;;;;;;;;;;-3.26;100.00;102295.28;5102381;28;20015;-72
2021/03/03 02:46:33;;;;;;;;;;;;;;;-3.24;100.00;102291.75;5093445;28;20031;-72
2021/03/03 02:49:00;;;;;;;;;;;;;;;-3.30;100.00;102298.81;5093104;28;19932;-72
2021/03/03 02:51:25;;;;;;;;;;;;;;;-3.34;100.00;102290.00;5093556;28;19993;-72
2021/03/03 02:53:51;;;;;;;;;;;;;;;-3.31;100.00;102282.00;5101584;28;20503;-72
2021/03/03 02:56:17;;;;;;;;;;;;;;;-3.29;100.00;102288.19;5113768;28;20408;-72
2021/03/03 02:58:44;;;;;;;;;;;;;;;-3.28;100.00;102292.63;5113891;28;20043;-72
2021/03/03 03:01:14;;;;;;;;;;;;;;;-3.28;100.00;102286.44;5113580;28;20416;-72
2021/03/03 03:03:41;;;;;;;;;;;;;;;-3.32;100.00;102290.84;5113297;28;20006;-72
2021/03/03 03:06:09;;;;;;;;;;;;;;;-3.35;100.00;102282.91;5111665;28;19984;-72
2021/03/03 03:08:37;;;;;;;;;;;;;;;-3.36;100.00;102286.44;5112929;28;20628;-72
2021/03/03 03:11:04;;;;;;;;;;;;;;;-3.42;100.00;102286.41;5113429;28;19954;-72
2021/03/03 03:13:31;;;;;;;;;;;;;;;-3.46;100.00;102281.97;5113373;28;19977;-72
2021/03/03 03:15:57;;;;;;;;;;;;;;;-3.48;100.00;102281.97;5113229;28;20401;-72
2021/03/03 03:18:27;;;;;;;;;;;;;;;-3.51;100.00;102287.28;5112252;28;19923;-72
2021/03/03 03:20:53;;;;;;;;;;;;;;;-3.50;100.00;102286.41;5113482;28;20007;-72
2021/03/03 03:23:20;;;;;;;;;;;;;;;-3.54;100.00;102282.84;5113336;28;20018;-72
2021/03/03 03:25:47;;;;;;;;;;;;;;;-3.54;100.00;102277.53;5113178;28;20015;-72
2021/03/03 03:28:13;;;;;;;;;;;;;;;-3.55;100.00;102270.47;5112033;28;20369;-72
2021/03/03 03:30:39;;;;;;;;;;;;;;;-3.55;100.00;102269.59;5112136;28;19959;-72
2021/03/03 03:33:05;;;;;;;;;;;;;;;-3.56;100.00;102263.38;5113390;28;20047;-72
2021/03/03 03:35:32;;;;;;;;;;;;;;;-3.60;100.00;102258.06;5112830;28;19963;-72
2021/03/03 03:37:59;;;;;;;;;;;;;;;-3.64;100.00;102254.50;5112351;28;19955;-72
2021/03/03 03:40:25;;;;;;;;;;;;;;;-3.64;100.00;102251.84;5112648;28;19974;-72
2021/03/03 03:42:54;;;;;;;;;;;;;;;-3.63;100.00;102250.97;5113089;28;19924;-72
2021/03/03 03:45:20;;;;;;;;;;;;;;;-3.61;100.00;102241.22;5112917;28;19930;-72
2021/03/03 03:47:46;;;;;;;;;;;;;;;-3.62;100.00;102255.41;5111653;28;20004;-71
2021/03/03 03:50:12;;;;;;;;;;;;;;;-3.60;100.00;102258.06;5113037;28;19937;-72
2021/03/03 03:52:39;;;;;;;;;;;;;;;-3.61;100.00;102251.84;5113104;28;19931;-72
2021/03/03 03:55:05;;;;;;;;;;;;;;;-3.56;100.00;102259.84;5112967;28;19963;-72
2021/03/03 03:57:39;;;;;;;;;;;;;;;-3.57;100.00;102258.97;5112765;28;19967;-72
2021/03/03 04:00:06;;;;;;;;;;;;;;;-3.56;100.00;102255.41;5111597;28;20031;-72
2021/03/03 04:02:32;;;;;;;;;;;;;;;-3.63;100.00;102248.31;5112697;28;19941;-72
2021/03/03 04:04:57;;;;;;;;;;;;;;;-3.68;100.00;102250.06;5112618;28;19928;-72
2021/03/03 04:07:23;;;;;;;;;;;;;;;-3.70;100.00;102246.56;5105604;28;19931;-72
2021/03/03 04:09:50;;;;;;;;;;;;;;;-3.68;100.00;102250.06;5092618;28;19939;-72
2021/03/03 04:12:15;;;;;;;;;;;;;;;-3.73;100.00;102250.09;5093385;28;20018;-72
2021/03/03 04:14:41;;;;;;;;;;;;;;;-3.72;100.00;102245.66;5093264;28;19985;-73
2021/03/03 04:17:07;;;;;;;;;;;;;;;-3.71;100.00;102250.06;5092735;28;20378;-72
2021/03/03 04:19:33;;;;;;;;;;;;;;;-3.75;100.00;102241.22;5091244;28;19924;-72
2021/03/03 04:21:58;;;;;;;;;;;;;;;-3.73;100.00;102238.56;5092323;28;19924;-72
2021/03/03 04:24:24;;;;;;;;;;;;;;;-3.75;100.00;102235.03;5092121;28;19924;-73
2021/03/03 04:26:51;;;;;;;;;;;;;;;-3.76;100.00;102239.44;5091971;28;20329;-72
2021/03/03 04:29:17;;;;;;;;;;;;;;;-3.80;100.00;102229.69;5091985;28;20454;-72
2021/03/03 04:31:42;;;;;;;;;;;;;;;-3.81;100.00;102221.72;5092109;28;19932;-72
2021/03/03 04:34:08;;;;;;;;;;;;;;;-3.83;100.00;102221.75;5091703;28;19924;-72
2021/03/03 04:36:34;;;;;;;;;;;;;;;-3.87;100.00;102219.97;5091779;28;19935;-71
2021/03/03 04:39:00;;;;;;;;;;;;;;;-3.92;100.00;102216.41;5112297;28;20385;-72
2021/03/03 04:41:25;;;;;;;;;;;;;;;-3.95;100.00;102214.63;5111553;28;19972;-71
2021/03/03 04:43:52;;;;;;;;;;;;;;;-3.95;100.00;102216.41;5112010;28;19924;-72
2021/03/03 04:46:18;;;;;;;;;;;;;;;-3.92;100.00;102211.97;5111738;28;20415;-72
2021/03/03 04:48:44;;;;;;;;;;;;;;;-3.90;100.00;102220.84;5112004;28;19928;-72
2021/03/03 04:51:09;;;;;;;;;;;;;;;-3.88;100.00;102216.41;5111964;28;19931;-72
2021/03/03 04:53:35;;;;;;;;;;;;;;;-3.89;100.00;102217.31;5111752;28;19930;-72
2021/03/03 04:56:01;;;;;;;;;;;;;;;-3.91;100.00;102213.75;5111833;28;19935;-72
2021/03/03 04:58:27;;;;;;;;;;;;;;;-3.93;100.00;102207.56;5111831;28;19935;-72
2021/03/03 05:00:53;;;;;;;;;;;;;;;-3.93;100.00;102202.25;5107031;28;19931;-72
2021/03/03 05:03:19;;;;;;;;;;;;;;;-3.90;100.00;102207.56;5103270;28;20468;-72
2021/03/03 05:05:45;;;;;;;;;;;;;;;-3.92;100.00;102205.78;5111468;28;19935;-72
2021/03/03 05:08:11;;;;;;;;;;;;;;;-3.94;100.00;102200.47;5106012;28;19923;-72
2021/03/03 05:10:36;;;;;;;;;;;;;;;-3.93;100.00;102194.31;5111700;28;19972;-72
2021/03/03 05:13:02;;;;;;;;;;;;;;;-3.91;100.00;102191.66;5115657;28;20424;-72
2021/03/03 05:15:28;;;;;;;;;;;;;;;-3.97;100.00;102191.63;5115832;28;19924;-73
2021/03/03 05:17:54;;;;;;;;;;;;;;;-4.01;100.00;102198.69;5115754;28;19924;-71
2021/03/03 05:20:20;;;;;;;;;;;;;;;-4.04;100.00;102198.69;5116027;28;20014;-72
2021/03/03 05:22:46;;;;;;;;;;;;;;;-4.04;100.00;102188.06;5115805;27;19955;-72
2021/03/03 05:25:13;;;;;;;;;;;;;;;-4.01;100.00;102188.06;5115589;28;19931;-71
2021/03/03 05:27:38;;;;;;;;;;;;;;;-4.01;100.00;102182.75;5115645;28;20466;-71
2021/03/03 05:30:05;;;;;;;;;;;;;;;-4.02;100.00;102186.31;5115852;28;19924;-71
2021/03/03 05:32:31;;;;;;;;;;;;;;;-4.00;100.00;102187.19;5115657;28;19928;-72
2021/03/03 05:34:58;;;;;;;;;;;;;;;-3.98;100.00;102181.88;5115899;28;19923;-72
2021/03/03 05:37:24;;;;;;;;;;;;;;;-4.02;100.00;102188.97;5114679;28;20000;-70
2021/03/03 05:39:49;;;;;;;;;;;;;;;-4.00;100.00;102184.53;5115602;28;20340;-71
2021/03/03 05:42:15;;;;;;;;;;;;;;;-3.99;100.00;102191.63;5115359;28;19935;-71
2021/03/03 05:44:44;;;;;;;;;;;;;;;-3.99;100.00;102190.75;5109959;28;19928;-70
2021/03/03 05:47:10;;;;;;;;;;;;;;;-3.94;100.00;102186.31;5094259;28;20019;-70
2021/03/03 05:49:39;;;;;;;;;;;;;;;-3.85;100.00;102182.81;5093474;28;20290;-70
2021/03/03 05:52:06;;;;;;;;;;;;;;;-3.85;100.00;102182.81;5095071;28;20030;-70
2021/03/03 05:54:32;;;;;;;;;;;;;;;-3.85;100.00;102180.16;5093438;28;19931;-70
2021/03/03 05:56:58;;;;;;;;;;;;;;;-3.82;100.00;102183.72;5094303;28;19923;-70
2021/03/03 05:59:24;;;;;;;;;;;;;;;-3.78;100.00;102180.16;5094196;28;19931;-70
2021/03/03 06:01:50;;;;;;;;;;;;;;;-3.76;100.00;102177.50;5094137;28;20039;-70
2021/03/03 06:04:16;;;;;;;;;;;;;;;-3.73;100.00;102177.50;5094424;28;20017;-70
2021/03/03 06:06:42;;;;;;;;;;;;;;;-3.65;100.00;102174.88;5093964;28;20389;-71
2021/03/03 06:09:09;;;;;;;;;;;;;;;-3.57;100.00;102181.97;5098202;28;19954;-71
2021/03/03 06:11:35;;;;;;;;;;;;;;;-3.43;100.00;102181.97;5094347;28;19924;-71
2021/03/03 06:14:02;;;;;;;;;;;;;;;-3.32;100.00;102178.44;5094238;28;19983;-71
2021/03/03 06:16:27;;;;;;;;;;;;;;;-3.10;100.00;102185.50;5093982;28;20556;-71
2021/03/03 06:18:54;;;;;;;;;;;;;;;-2.73;100.00;102185.41;5094252;28;19928;-71
2021/03/03 06:21:27;;;;;;;;;;;;;;;-2.33;100.00;102179.06;5093867;28;19924;-71
2021/03/03 06:23:59;;;;;;;;;;;;;;;-1.89;100.00;102174.41;5092989;28;19924;-71
2021/03/03 06:26:26;;;;;;;;;;;;;;;-1.47;100.00;102172.38;5093908;28;20045;-72
2021/03/03 06:28:52;;;;;;;;;;;;;;;-1.27;100.00;102163.28;5094013;28;20019;-71
2021/03/03 06:31:31;;;;;;;;;;;;;;;-1.21;100.00;102163.25;5096740;28;19924;-71
2021/03/03 06:34:08;;;;;;;;;;;;;;;-1.11;100.00;102158.72;5113703;28;20465;-72
2021/03/03 06:36:34;;;;;;;;;;;;;;;-0.92;100.00;102159.41;5111636;28;19934;-72
2021/03/03 06:39:13;;;;;;;;;;;;;;;-0.68;100.00;102148.47;5109992;28;20308;-73
2021/03/03 06:41:40;;;;;;;;;;;;;;;0.02;100.00;102155.59;5094332;28;20358;-72
2021/03/03 06:44:07;;;;;;;;;;;;;;;0.47;100.00;102158.47;5107375;28;19928;-73
2021/03/03 06:46:32;;;;;;;;;;;;;;;0.99;100.00;102159.34;5105735;28;19970;-74
2021/03/03 06:48:58;;;;;;;;;;;;;;;1.65;100.00;102153.63;5101539;28;19924;-73
2021/03/03 06:51:26;;;;;;;;;;;;;;;2.32;100.00;102147.66;5101132;28;19925;-73
2021/03/03 06:53:52;;;;;;;;;;;;;;;3.01;100.00;102143.22;5103094;28;19959;-73
2021/03/03 06:56:37;;;;;;;;;;;;;;;3.53;100.00;102140.00;5103224;28;20007;-74
2021/03/03 06:59:11;;;;;;;;;;;;;;;4.05;100.00;102137.53;5109030;28;20568;-75
2021/03/03 07:01:37;;;;;;;;;;;;;;;4.42;100.00;102135.47;5113238;28;19928;-74
2021/03/03 07:04:03;;;;;;;;;;;;;;;5.00;100.00;102146.06;5113975;28;20416;-74
2021/03/03 07:06:31;;;;;;;;;;;;;;;5.49;100.00;102141.59;5112290;28;20011;-74
2021/03/03 07:08:57;;;;;;;;;;;;;;;5.65;100.00;102139.19;5113610;28;20502;-74
2021/03/03 07:11:23;;;;;;;;;;;;;;;5.44;100.00;102132.81;5112776;28;19962;-74
2021/03/03 07:13:48;;;;;;;;;;;;;;;5.43;100.00;102138.25;5113817;28;19924;-74
2021/03/03 07:16:15;;;;;;;;;;;;;;;5.49;100.00;102124.53;5112444;28;19972;-74
2021/03/03 07:18:41;;;;;;;;;;;;;;;5.26;100.00;102128.97;5097307;28;20105;-74
2021/03/03 07:21:08;;;;;;;;;;;;;;;5.02;100.00;102136.09;5113111;28;19924;-74
2021/03/03 07:23:40;;;;;;;;;;;;;;;5.09;100.00;102126.91;5103520;28;19928;-74
2021/03/03 07:26:06;;;;;;;;;;;;;;;5.31;100.00;102123.41;5113575;28;19970;-73
2021/03/03 07:28:33;;;;;;;;;;;;;;;5.56;100.00;102120.69;5112282;28;20355;-74
2021/03/03 07:30:58;;;;;;;;;;;;;;;5.71;100.00;102116.53;5113465;28;19924;-73
2021/03/03 07:33:25;;;;;;;;;;;;;;;5.66;100.00;102108.59;5112285;28;19924;-74
2021/03/03 07:35:51;;;;;;;;;;;;;;;5.84;100.00;102107.03;5111732;28;20019;-74
2021/03/03 07:38:18;;;;;;;;;;;;;;;6.07;100.00;102116.03;5093190;28;19931;-76
2021/03/03 07:40:44;;;;;;;;;;;;;;;6.59;100.00;102117.50;5093079;28;19968;-76
2021/03/03 07:43:10;;;;;;;;;;;;;;;7.25;100.00;102117.34;5103127;28;19924;-74
2021/03/03 07:45:37;;;;;;;;;;;;;;;7.64;100.00;102118.28;5100424;28;20471;-75
2021/03/03 07:48:05;;;;;;;;;;;;;;;7.97;100.00;102120.34;5112793;28;20014;-75
2021/03/03 07:50:33;;;;;;;;;;;;;;;8.18;100.00;102107.63;5095649;28;20010;-74
2021/03/03 07:53:00;;;;;;;;;;;;;;;8.13;100.00;102109.66;5107336;28;20350;-75
2021/03/03 07:55:26;;;;;;;;;;;;;;;8.19;100.00;102112.03;5106810;28;19931;-75
2021/03/03 07:57:53;;;;;;;;;;;;;;;8.37;100.00;102112.97;5111219;28;20031;-76
2021/03/03 08:00:20;;;;;;;;;;;;;;;8.62;100.00;102122.59;5111640;28;20568;-75
2021/03/03 08:02:47;;;;;;;;;;;;;;;9.02;100.00;102110.59;5113185;28;20010;-74
2021/03/03 08:05:25;;;;;;;;;;;;;;;8.70;100.00;102094.19;5111927;28;20413;-75
2021/03/03 08:08:16;;;;;;;;;;;;;;;8.77;100.00;102096.59;5110747;28;20026;-75
2021/03/03 08:10:42;;;;;;;;;;;;;;;8.29;100.00;102091.72;5103876;28;20301;-75
2021/03/03 08:13:09;;;;;;;;;;;;;;;8.37;100.00;102091.34;5099496;28;20041;-75
2021/03/03 08:15:44;;;;;;;;;;;;;;;8.85;100.00;102095.22;5111450;28;19924;-75
2021/03/03 08:18:31;;;;;;;;;;;;;;;9.92;100.00;102091.28;5107230;28;20300;-75
2021/03/03 08:20:58;;;;;;;;;;;;;;;10.65;100.00;102087.97;5099353;28;19924;-75
2021/03/03 08:23:41;;;;;;;;;;;;;;;11.10;94.65;102077.97;5103922;28;20014;-76
2021/03/03 08:26:11;;;;;;;;;;;;;;;11.90;89.50;102066.59;5112109;28;20026;-75
2021/03/03 08:28:37;;;;;;;;;;;;;;;12.01;83.26;102063.19;5111378;28;19924;-75
2021/03/03 08:31:31;;;;;;;;;;;;;;;11.97;85.79;102075.25;5106140;28;19927;-74
2021/03/03 08:34:01;;;;;;;;;;;;;;;12.54;80.95;102072.31;5091763;28;20425;-74
2021/03/03 08:36:45;;;;;;;;;;;;;;;12.55;78.55;102073.22;5092984;28;19955;-74
2021/03/03 08:39:44;;;;;;;;;;;;;;;12.68;79.94;102062.31;5096899;28;20389;-75
2021/03/03 08:42:27;;;;;;;;;;;;;;;13.81;72.10;102048.91;5112087;28;20006;-74
2021/03/03 08:44:57;;;;;;;;;;;;;;;13.68;68.29;102040.75;5096502;28;19924;-75
2021/03/03 08:47:38;;;;;;;;;;;;;;;13.88;67.34;102045.63;5098848;28;19984;-73
2021/03/03 08:50:19;;;;;;;;;;;;;;;14.14;65.68;102041.91;5111082;28;20026;-73
2021/03/03 08:53:11;;;;;;;;;;;;;;;13.11;68.20;102037.53;5101662;28;20331;-75
2021/03/03 08:55:37;;;;;;;;;;;;;;;13.25;73.21;102033.78;5097867;28;20345;-74
2021/03/03 08:58:23;;;;;;;;;;;;;;;12.85;74.90;102037.53;5109486;27;19955;-74
2021/03/03 09:00:49;;;;;;;;;;;;;;;13.83;70.14;102028.69;5094592;28;19959;-74
2021/03/03 09:03:18;;;;;;;;;;;;;;;14.16;66.34;102018.97;5108085;28;20030;-74
2021/03/03 09:05:44;;;;;;;;;;;;;;;13.67;65.47;102028.06;5106093;28;19924;-75
2021/03/03 09:08:18;;;;;;;;;;;;;;;13.66;66.38;102021.75;5119026;28;20294;-75
2021/03/03 09:10:43;;;;;;;;;;;;;;;14.06;67.05;102020.66;5118197;28;19955;-75
2021/03/03 09:13:19;;;;;;;;;;;;;;;13.50;61.02;102016.56;5097423;28;19924;-73
2021/03/03 09:16:00;;;;;;;;;;;;;;;13.85;64.77;102014.94;5106846;28;19967;-74
2021/03/03 09:18:26;;;;;;;;;;;;;;;13.64;65.27;102015.56;5110422;28;20018;-74
2021/03/03 09:21:02;;;;;;;;;;;;;;;13.88;63.41;102018.31;5107816;28;20024;-74
2021/03/03 09:23:28;;;;;;;;;;;;;;;14.14;61.67;102020.06;5101979;28;19928;-74
2021/03/03 09:25:54;;;;;;;;;;;;;;;14.52;59.53;102002.56;5091257;28;19931;-74
2021/03/03 09:28:21;;;;;;;;;;;;;;;13.20;63.14;102004.16;5107279;28;19923;-74
2021/03/03 09:30:46;;;;;;;;;;;;;;;13.36;66.11;102008.50;5102868;28;20031;-75
2021/03/03 09:33:13;;;;;;;;;;;;;;;13.55;67.96;102003.47;5120200;28;19927;-74
2021/03/03 09:35:39;;;;;;;;;;;;;;;12.96;67.84;101998.59;5111053;28;19923;-74
2021/03/03 09:38:10;;;;;;;;;;;;;;;13.46;72.00;101990.50;5106945;28;19924;-74
2021/03/03 09:40:36;;;;;;;;;;;;;;;13.46;65.44;101998.69;5111687;28;20026;-74
2021/03/03 09:43:02;;;;;;;;;;;;;;;13.17;69.69;101987.13;5108162;28;20007;-74
2021/03/03 09:45:29;;;;;;;;;;;;;;;13.77;67.87;101985.47;5098805;28;19970;-74
2021/03/03 09:47:56;;;;;;;;;;;;;;;14.55;63.46;101984.09;5090961;28;19963;-74
2021/03/03 09:50:24;;;;;;;;;;;;;;;14.33;60.87;101982.16;5095090;28;19924;-75
2021/03/03 09:52:51;;;;;;;;;;;;;;;12.59;71.65;101986.69;5111149;28;19959;-74
2021/03/03 09:55:18;;;;;;;;;;;;;;;13.61;68.06;101979.44;5110402;28;20018;-74
2021/03/03 09:57:48;;;;;;;;;;;;;;;14.18;64.00;101976.00;5112199;28;20014;-74
2021/03/03 10:00:15;;;;;;;;;;;;;;;14.91;63.03;101975.84;5113769;28;19963;-74
2021/03/03 10:02:46;;;;;;;;;;;;;;;15.19;62.77;101973.63;5114990;28;19924;-74
2021/03/03 10:05:16;;;;;;;;;;;;;;;15.42;59.54;101977.22;5105802;28;19966;-74
2021/03/03 10:07:48;;;;;;;;;;;;;;;15.73;57.53;101981.03;5094846;28;19977;-74
2021/03/03 10:10:16;;;;;;;;;;;;;;;15.53;58.84;101979.09;5094717;28;19970;-75
2021/03/03 10:12:42;;;;;;;;;;;;;;;15.66;59.81;101973.44;5110048;28;19923;-75
2021/03/03 10:15:09;;;;;;;;;;;;;;;15.03;64.94;101974.00;5113965;28;20277;-75
2021/03/03 10:17:36;;;;;;;;;;;;;;;14.78;64.00;101975.09;5114407;28;19932;-74
2021/03/03 10:20:05;;;;;;;;;;;;;;;13.69;72.79;101975.13;5114766;28;19924;-73
2021/03/03 10:22:31;;;;;;;;;;;;;;;14.02;69.50;101970.00;5108483;28;20052;-73
2021/03/03 10:24:58;;;;;;;;;;;;;;;14.12;69.55;101976.47;5112543;28;20037;-73
2021/03/03 10:27:24;;;;;;;;;;;;;;;14.86;64.48;101964.44;5112670;28;19930;-74
2021/03/03 10:29:50;;;;;;;;;;;;;;;14.89;60.91;101955.97;5113230;28;19923;-74
2021/03/03 10:32:16;;;;;;;;;;;;;;;15.39;57.48;101961.03;5096201;28;20444;-73
2021/03/03 10:34:42;;;;;;;;;;;;;;;15.64;55.83;101953.56;5106258;28;19924;-74
2021/03/03 10:37:22;;;;;;;;;;;;;;;15.79;54.37;101957.72;5093611;28;19963;-75
2021/03/03 10:39:48;;;;;;;;;;;;;;;15.81;53.77;101955.78;5096444;28;19924;-74
2021/03/03 10:42:20;;;;;;;;;;;;;;;16.13;54.46;101952.19;5104953;28;20010;-74
2021/03/03 10:44:49;;;;;;;;;;;;;;;16.48;52.62;101944.66;5099300;28;20027;-74
2021/03/03 10:47:15;;;;;;;;;;;;;;;16.23;50.36;101952.25;5095032;28;19959;-75
2021/03/03 10:49:41;;;;;;;;;;;;;;;16.65;50.42;101955.00;5111676;28;19928;-75
2021/03/03 10:52:18;;;;;;;;;;;;;;;16.21;48.81;101946.03;5108845;27;19939;-74
2021/03/03 10:54:44;;;;;;;;;;;;;;;16.21;48.94;101943.31;5112958;28;19970;-74
2021/03/03 10:57:09;;;;;;;;;;;;;;;16.16;49.99;101932.72;5113506;28;19924;-74
2021/03/03 10:59:37;;;;;;;;;;;;;;;16.08;49.91;101931.66;5113029;28;19924;-74
2021/03/03 11:02:04;;;;;;;;;;;;;;;16.63;48.79;101929.59;5113707;28;19970;-75
2021/03/03 11:04:40;;;;;;;;;;;;;;;17.01;46.43;101919.88;5106142;28;20011;-74
2021/03/03 11:07:06;;;;;;;;;;;;;;;16.99;45.47;101923.75;5106465;28;19930;-73
2021/03/03 11:09:33;;;;;;;;;;;;;;;16.79;45.24;101925.50;5108785;28;20010;-74
2021/03/03 11:11:59;;;;;;;;;;;;;;;17.20;44.72;101910.81;5112883;28;19962;-75
2021/03/03 11:14:25;;;;;;;;;;;;;;;17.51;44.47;101910.75;5113348;28;20025;-75
2021/03/03 11:16:51;;;;;;;;;;;;;;;17.53;43.93;101914.25;5107998;28;19977;-74
2021/03/03 11:19:17;;;;;;;;;;;;;;;17.32;43.75;101911.59;5106235;28;19924;-75
2021/03/03 11:21:43;;;;;;;;;;;;;;;16.89;44.49;101901.75;5112157;28;19971;-73
2021/03/03 11:24:10;;;;;;;;;;;;;;;16.52;45.52;101896.78;5112520;28;19947;-75
2021/03/03 11:26:37;;;;;;;;;;;;;;;16.75;44.66;101889.25;5111005;28;20289;-75
2021/03/03 11:29:02;;;;;;;;;;;;;;;17.03;45.66;101875.84;5096565;28;19986;-74
2021/03/03 11:31:28;;;;;;;;;;;;;;;17.13;43.32;101870.38;5112115;28;19927;-74
2021/03/03 11:33:54;;;;;;;;;;;;;;;17.22;42.78;101870.41;5112832;28;19923;-75
2021/03/03 11:36:20;;;;;;;;;;;;;;;17.65;42.57;101859.19;5092514;28;19925;-74
2021/03/03 11:38:46;;;;;;;;;;;;;;;17.50;41.14;101853.25;5102407;28;19989;-74
2021/03/03 11:41:12;;;;;;;;;;;;;;;17.79;41.41;101857.91;5110925;28;19924;-75
2021/03/03 11:43:38;;;;;;;;;;;;;;;17.51;41.08;101855.84;5111054;28;19924;-74
2021/03/03 11:46:04;;;;;;;;;;;;;;;17.35;41.30;101837.22;5093991;28;19981;-75
2021/03/03 11:48:30;;;;;;;;;;;;;;;17.78;41.46;101843.28;5093751;28;20412;-74
2021/03/03 11:50:56;;;;;;;;;;;;;;;17.94;40.70;101842.75;5103217;28;19935;-74
2021/03/03 11:53:21;;;;;;;;;;;;;;;17.65;40.85;101839.97;5111898;28;19938;-75
2021/03/03 11:55:47;;;;;;;;;;;;;;;17.45;42.27;101830.88;5108912;28;19947;-74
2021/03/03 11:58:13;;;;;;;;;;;;;;;17.56;40.44;101825.25;5112637;28;19924;-74
2021/03/03 12:00:40;;;;;;;;;;;;;;;17.84;40.32;101820.75;5111420;28;20277;-74
2021/03/03 12:03:06;;;;;;;;;;;;;;;17.91;39.97;101824.63;5102672;28;19927;-74
2021/03/03 12:05:32;;;;;;;;;;;;;;;17.86;40.68;101809.63;5106880;28;20544;-74
2021/03/03 12:07:58;;;;;;;;;;;;;;;17.85;39.33;101803.28;5107122;28;19924;-74
2021/03/03 12:10:24;;;;;;;;;;;;;;;17.52;39.36;101805.44;5110531;28;19955;-74
2021/03/03 12:12:50;;;;;;;;;;;;;;;17.59;39.72;101807.63;5114084;28;19930;-74
2021/03/03 12:15:16;;;;;;;;;;;;;;;17.90;40.01;101805.56;5113580;28;19928;-74
2021/03/03 12:17:43;;;;;;;;;;;;;;;17.69;39.91;101794.75;5116005;28;19924;-73
2021/03/03 12:20:09;;;;;;;;;;;;;;;18.19;40.04;101788.19;5106230;28;20054;-74
2021/03/03 12:22:34;;;;;;;;;;;;;;;18.17;39.64;101792.97;5109362;28;22017;-74
2021/03/03 12:25:00;;;;;;;;;;;;;;;18.38;38.08;101793.59;5105596;28;19931;-76
2021/03/03 12:27:26;;;;;;;;;;;;;;;18.74;38.50;101787.38;5111821;28;20022;-76
2021/03/03 12:29:52;;;;;;;;;;;;;;;18.84;38.03;101776.31;5091793;28;19931;-77
2021/03/03 12:32:18;;;;;;;;;;;;;;;19.50;37.27;101783.44;5100361;28;19977;-76